createdAt,value
2019-05-29T00:01:01.475Z,101496.12
2019-05-29T00:03:30.301Z,101498.45
2019-05-29T00:05:58.890Z,101499.75
2019-05-29T00:08:27.341Z,101496.03
2019-05-29T00:10:55.870Z,101502.96
2019-05-29T00:13:24.515Z,101506.23
2019-05-29T00:15:52.970Z,101504.87
2019-05-29T00:18:23.249Z,101508.52
2019-05-29T00:20:55.450Z,101512.16
2019-05-29T00:23:24.090Z,101520.14
2019-05-29T00:25:52.550Z,101521.16
2019-05-29T00:28:21.205Z,101522.45
2019-05-29T00:30:49.670Z,101524.44
2019-05-29T00:33:18.389Z,101526.41
2019-05-29T00:35:47.268Z,101529.20
2019-05-29T00:38:20.524Z,101529.38
2019-05-29T00:40:49.172Z,101528.34
2019-05-29T00:43:17.678Z,101530.32
2019-05-29T00:45:46.154Z,101531.47
2019-05-29T00:48:16.023Z,101531.27
2019-05-29T00:50:44.823Z,101543.05
2019-05-29T00:53:14.281Z,101541.86
2019-05-29T00:55:42.886Z,101545.50
2019-05-29T00:58:11.588Z,101552.14
2019-05-29T01:00:40.442Z,101550.47
2019-05-29T01:03:09.563Z,101562.06
2019-05-29T01:05:39.469Z,101551.43
2019-05-29T01:11:48.613Z,101563.77
2019-05-29T01:14:17.374Z,101566.42
2019-05-29T01:16:45.855Z,101561.95
2019-05-29T01:19:26.689Z,101564.62
2019-05-29T01:21:56.896Z,101570.75
2019-05-29T01:24:26.578Z,101567.28
2019-05-29T01:26:55.129Z,101571.02
2019-05-29T01:29:23.762Z,101576.33
2019-05-29T01:31:52.656Z,101571.44
2019-05-29T01:34:22.026Z,101575.72
2019-05-29T01:36:50.747Z,101580.22
2019-05-29T01:39:19.382Z,101577.56
2019-05-29T01:41:47.898Z,101582.87
2019-05-29T01:44:17.421Z,101587.34
2019-05-29T01:46:46.059Z,101585.83
2019-05-29T01:49:16.047Z,101585.83
2019-05-29T01:51:44.646Z,101581.33
2019-05-29T01:54:13.107Z,101589.52
2019-05-29T01:56:41.989Z,101594.84
2019-05-29T01:59:10.459Z,101594.03
2019-05-29T02:01:39.138Z,101595.23
2019-05-29T02:04:07.814Z,101593.89
2019-05-29T02:06:36.275Z,101599.55
2019-05-29T02:09:06.967Z,101600.20
2019-05-29T02:11:35.467Z,101602.00
2019-05-29T02:14:03.922Z,101604.83
2019-05-29T02:16:32.709Z,101610.96
2019-05-29T02:19:01.233Z,101615.45
2019-05-29T02:21:29.699Z,101616.14
2019-05-29T02:23:58.180Z,101618.50
2019-05-29T02:26:26.754Z,101616.53
2019-05-29T02:28:55.222Z,101621.52
2019-05-29T02:31:26.395Z,101619.45
2019-05-29T02:33:54.549Z,101624.81
2019-05-29T02:36:24.614Z,101632.33
2019-05-29T02:38:53.514Z,101633.55
2019-05-29T02:41:24.171Z,101638.09
2019-05-29T02:43:52.434Z,101644.44
2019-05-29T02:46:21.708Z,101641.13
2019-05-29T02:48:51.136Z,101640.14
2019-05-29T02:51:19.874Z,101640.49
2019-05-29T02:53:48.734Z,101647.80
2019-05-29T02:56:17.206Z,101643.16
2019-05-29T02:58:46.093Z,101648.52
2019-05-29T03:01:14.594Z,101651.23
2019-05-29T03:03:43.102Z,101650.23
2019-05-29T03:06:13.175Z,101651.09
2019-05-29T03:08:41.698Z,101657.74
2019-05-29T03:11:10.390Z,101651.53
2019-05-29T03:13:38.949Z,101658.00
2019-05-29T03:16:12.162Z,101662.28
2019-05-29T03:18:37.998Z,101668.41
2019-05-29T03:21:06.439Z,101678.31
2019-05-29T03:23:36.344Z,101678.27
2019-05-29T03:26:05.587Z,101681.91
2019-05-29T03:28:35.037Z,101687.23
2019-05-29T03:31:03.786Z,101692.55
2019-05-29T03:33:43.558Z,101691.86
2019-05-29T03:36:04.264Z,101698.32
2019-05-29T03:38:34.285Z,101701.45
2019-05-29T03:41:03.155Z,101698.96
2019-05-29T03:43:33.653Z,101703.08
2019-05-29T03:46:01.825Z,101705.55
2019-05-29T03:48:32.206Z,101708.56
2019-05-29T03:51:00.596Z,101705.05
2019-05-29T03:53:29.320Z,101711.05
2019-05-29T03:55:58.380Z,101709.38
2019-05-29T03:58:28.714Z,101709.09
2019-05-29T04:00:57.179Z,101720.41
2019-05-29T04:03:26.937Z,101716.95
2019-05-29T04:05:55.447Z,101719.48
2019-05-29T04:08:23.929Z,101719.83
2019-05-29T04:10:52.850Z,101720.52
2019-05-29T04:13:21.333Z,101725.88
2019-05-29T04:15:49.794Z,101731.25
2019-05-29T04:18:20.819Z,101737.92
2019-05-29T04:20:51.449Z,101740.16
2019-05-29T04:23:20.756Z,101745.36
2019-05-29T04:25:51.402Z,101749.05
2019-05-29T04:28:20.802Z,101751.13
2019-05-29T04:30:49.342Z,101751.52
2019-05-29T04:33:17.788Z,101752.56
2019-05-29T04:35:46.558Z,101758.95
2019-05-29T04:38:15.028Z,101757.72
2019-05-29T04:40:43.542Z,101762.62
2019-05-29T04:43:12.026Z,101765.84
2019-05-29T04:45:40.511Z,101774.26
2019-05-29T04:48:09.234Z,101773.00
2019-05-29T04:50:40.173Z,101786.09
2019-05-29T04:53:07.892Z,101781.16
2019-05-29T04:55:37.012Z,101783.89
2019-05-29T04:58:05.777Z,101793.63
2019-05-29T05:00:35.224Z,101798.17
2019-05-29T05:03:04.002Z,101795.23
2019-05-29T05:05:33.259Z,101806.95
2019-05-29T05:08:01.808Z,101809.54
2019-05-29T05:10:36.003Z,101813.94
2019-05-29T05:13:06.400Z,101814.34
2019-05-29T05:15:36.085Z,101815.09
2019-05-29T05:18:06.775Z,101819.16
2019-05-29T05:20:36.250Z,101823.94
2019-05-29T05:23:05.216Z,101822.34
2019-05-29T05:25:34.215Z,101828.06
2019-05-29T05:28:04.432Z,101831.45
2019-05-29T05:30:38.583Z,101842.48
2019-05-29T05:33:08.878Z,101836.13
2019-05-29T05:35:37.360Z,101843.14
2019-05-29T05:38:05.890Z,101842.14
2019-05-29T05:40:37.922Z,101842.80
2019-05-29T05:43:05.195Z,101854.83
2019-05-29T05:45:35.009Z,101860.52
2019-05-29T05:48:04.035Z,101862.19
2019-05-29T05:50:33.303Z,101881.08
2019-05-29T05:53:02.339Z,101874.55
2019-05-29T05:55:31.460Z,101876.56
2019-05-29T05:58:00.087Z,101882.94
2019-05-29T06:00:34.180Z,101877.45
2019-05-29T06:03:02.957Z,101884.98
2019-05-29T06:05:32.044Z,101885.48
2019-05-29T06:08:00.827Z,101892.02
2019-05-29T06:10:29.681Z,101893.52
2019-05-29T06:12:58.147Z,101895.34
2019-05-29T06:15:27.098Z,101904.37
2019-05-29T06:18:16.981Z,101903.38
2019-05-29T06:20:26.308Z,101903.70
2019-05-29T06:22:54.762Z,101905.70
2019-05-29T06:25:23.671Z,101904.73
2019-05-29T06:27:52.198Z,101907.40
2019-05-29T06:30:22.300Z,101913.75
2019-05-29T06:32:51.021Z,101908.06
2019-05-29T06:35:19.600Z,101912.89
2019-05-29T06:37:48.239Z,101907.55
2019-05-29T06:40:44.029Z,101906.89
2019-05-29T06:43:25.786Z,101905.38
2019-05-29T06:45:55.018Z,101909.41
2019-05-29T06:48:41.540Z,101911.37
2019-05-29T06:50:57.255Z,101922.56
2019-05-29T06:53:25.652Z,101918.05
2019-05-29T06:55:56.163Z,101920.05
2019-05-29T06:58:27.008Z,101922.02
2019-05-29T07:00:55.812Z,101930.85
2019-05-29T07:03:24.390Z,101927.67
2019-05-29T07:05:53.148Z,101934.36
2019-05-29T07:08:37.638Z,101929.67
2019-05-29T07:10:52.047Z,101944.04
2019-05-29T07:13:20.601Z,101943.16
2019-05-29T07:15:49.488Z,101943.98
2019-05-29T07:18:17.944Z,101949.30
2019-05-29T07:20:46.993Z,101943.55
2019-05-29T07:23:15.754Z,101947.68
2019-05-29T07:25:45.628Z,101950.97
2019-05-29T07:28:14.298Z,101956.09
2019-05-29T07:30:48.310Z,101960.09
2019-05-29T07:33:13.054Z,101958.26
2019-05-29T07:35:41.517Z,101970.23
2019-05-29T07:38:10.331Z,101978.19
2019-05-29T07:40:40.485Z,101977.41
2019-05-29T07:43:09.018Z,101974.08
2019-05-29T07:45:37.849Z,101978.44
2019-05-29T07:48:06.819Z,101978.55
2019-05-29T07:50:35.457Z,101975.33
2019-05-29T07:53:04.117Z,101983.64
2019-05-29T07:55:32.616Z,101977.56
2019-05-29T07:58:01.059Z,101977.87
2019-05-29T08:00:35.885Z,101985.55
2019-05-29T08:03:00.076Z,101982.64
2019-05-29T08:05:28.546Z,101985.14
2019-05-29T08:07:57.528Z,101987.16
2019-05-29T08:10:26.157Z,101987.36
2019-05-29T08:12:55.967Z,101989.56
2019-05-29T08:15:24.767Z,101997.97
2019-05-29T08:17:53.245Z,101991.94
2019-05-29T08:20:22.094Z,101997.98
2019-05-29T08:22:51.078Z,102005.05
2019-05-29T08:25:19.962Z,102007.70
2019-05-29T08:27:48.887Z,102005.61
2019-05-29T08:30:19.545Z,102002.70
2019-05-29T08:32:49.246Z,102005.48
2019-05-29T08:35:18.027Z,102009.02
2019-05-29T08:37:46.998Z,102003.79
2019-05-29T08:40:16.076Z,102003.95
2019-05-29T08:42:45.210Z,102009.55
2019-05-29T08:45:14.204Z,102014.58
2019-05-29T08:47:43.483Z,102014.16
2019-05-29T08:50:18.443Z,102016.47
2019-05-29T08:52:43.910Z,102015.83
2019-05-29T08:55:13.938Z,102015.02
2019-05-29T08:57:44.293Z,102028.03
2019-05-29T09:00:15.762Z,102023.67
2019-05-29T09:02:44.760Z,102038.17
2019-05-29T09:05:13.536Z,102047.83
2019-05-29T09:07:43.372Z,102038.14
2019-05-29T09:10:13.766Z,102045.69
2019-05-29T09:12:45.963Z,102042.58
2019-05-29T09:15:12.890Z,102044.20
2019-05-29T09:21:22.887Z,102038.88
2019-05-29T09:23:52.827Z,102037.23
2019-05-29T09:26:24.661Z,102042.20
2019-05-29T09:28:51.903Z,102038.98
2019-05-29T09:31:21.893Z,102037.36
2019-05-29T09:33:50.571Z,102037.83
2019-05-29T09:36:22.776Z,102041.91
2019-05-29T09:38:51.486Z,102044.19
2019-05-29T09:41:21.719Z,102040.59
2019-05-29T09:43:59.180Z,102034.67
2019-05-29T09:46:23.809Z,102038.80
2019-05-29T09:48:52.496Z,102038.19
2019-05-29T09:51:22.011Z,102047.30
2019-05-29T09:53:52.495Z,102042.33
2019-05-29T09:56:21.119Z,102041.98
2019-05-29T09:58:49.773Z,102039.31
2019-05-29T10:01:24.013Z,102050.78
2019-05-29T10:03:48.694Z,102052.30
2019-05-29T10:06:17.401Z,102064.56
2019-05-29T10:08:45.877Z,102070.62
2019-05-29T10:11:14.340Z,102072.95
2019-05-29T10:13:42.918Z,102064.77
2019-05-29T10:17:26.856Z,102069.05
2019-05-29T10:19:55.899Z,102066.23
2019-05-29T10:22:25.617Z,102068.11
2019-05-29T10:24:56.226Z,102062.00
2019-05-29T10:27:24.674Z,102060.33
2019-05-29T10:29:54.245Z,102056.73
2019-05-29T10:32:22.833Z,102059.68
2019-05-29T10:34:52.667Z,102064.39
2019-05-29T10:37:21.308Z,102074.72
2019-05-29T10:39:50.990Z,102066.36
2019-05-29T10:42:20.730Z,102069.23
2019-05-29T10:44:51.305Z,102073.32
2019-05-29T10:47:19.910Z,102077.86
2019-05-29T10:49:49.772Z,102084.83
2019-05-29T10:52:18.298Z,102076.68
2019-05-29T10:54:46.740Z,102082.69
2019-05-29T10:57:15.208Z,102084.67
2019-05-29T10:59:44.619Z,102084.00
2019-05-29T11:02:13.047Z,102085.45
2019-05-29T11:04:41.489Z,102083.12
2019-05-29T11:07:09.923Z,102076.03
2019-05-29T11:13:06.817Z,102079.69
2019-05-29T11:15:35.361Z,102077.05
2019-05-29T11:18:03.891Z,102079.05
2019-05-29T11:20:32.467Z,102082.06
2019-05-29T11:23:00.944Z,102084.80
2019-05-29T11:25:29.566Z,102091.61
2019-05-29T11:28:01.130Z,102088.64
2019-05-29T11:30:29.832Z,102078.39
2019-05-29T11:33:00.984Z,102078.28
2019-05-29T11:35:28.903Z,102075.07
2019-05-29T11:37:58.733Z,102072.90
2019-05-29T11:40:27.427Z,102064.83
2019-05-29T11:42:56.945Z,102078.55
2019-05-29T11:45:27.251Z,102079.38
2019-05-29T11:47:57.370Z,102080.84
2019-05-29T11:50:27.704Z,102074.53
2019-05-29T11:52:56.431Z,102085.35
2019-05-29T11:55:25.302Z,102077.70
2019-05-29T11:57:55.925Z,102082.88
2019-05-29T12:00:24.592Z,102085.66
2019-05-29T12:02:53.935Z,102082.20
2019-05-29T12:05:23.315Z,102089.62
2019-05-29T12:07:53.325Z,102084.61
2019-05-29T12:10:24.528Z,102091.14
2019-05-29T12:12:53.450Z,102098.80
2019-05-29T12:15:22.536Z,102091.93
2019-05-29T12:18:00.392Z,102093.91
2019-05-29T12:20:27.906Z,102092.05
2019-05-29T18:52:44.921Z,102093.47
2019-05-29T18:55:13.563Z,102093.47
2019-05-29T18:57:42.031Z,102083.56
2019-05-29T19:00:13.847Z,102082.89
2019-05-29T19:02:42.319Z,102089.16
2019-05-29T19:05:11.695Z,102089.38
2019-05-29T19:07:40.325Z,102087.94
2019-05-29T19:10:09.613Z,102085.45
2019-05-29T19:12:38.062Z,102094.39
2019-05-29T19:15:08.280Z,102088.36
2019-05-29T19:17:37.455Z,102088.36
2019-05-29T19:20:09.327Z,102087.47
2019-05-29T19:22:37.980Z,102091.31
2019-05-29T19:25:07.791Z,102093.78
2019-05-29T19:27:41.613Z,102096.23
2019-05-29T19:30:09.461Z,102097.86
2019-05-29T19:32:37.941Z,102097.13
2019-05-29T19:35:11.604Z,102099.59
2019-05-29T19:37:40.317Z,102106.38
2019-05-29T19:40:09.439Z,102107.78
2019-05-29T19:42:39.581Z,102109.51
2019-05-29T19:45:12.281Z,102107.53
2019-05-29T19:47:40.981Z,102111.45
2019-05-29T19:50:11.629Z,102107.31
2019-05-29T19:52:40.242Z,102111.55
2019-05-29T19:55:09.344Z,102108.03
2019-05-29T19:57:54.170Z,102104.22
2019-05-29T20:00:10.420Z,102108.44
2019-05-29T20:02:39.724Z,102106.96
2019-05-29T20:05:08.648Z,102112.14
2019-05-29T20:07:37.547Z,102110.84
2019-05-29T20:10:07.622Z,102117.03
2019-05-29T20:12:37.913Z,102119.22
2019-05-29T20:15:07.818Z,102126.44
2019-05-29T20:17:36.340Z,102120.89
2019-05-29T20:20:08.779Z,102123.38
2019-05-29T20:22:37.423Z,102121.36
2019-05-29T20:25:08.572Z,102126.56
2019-05-29T20:27:38.337Z,102120.86
2019-05-29T20:30:09.658Z,102124.54
2019-05-29T20:32:38.948Z,102118.87
2019-05-29T20:35:08.097Z,102132.73
2019-05-29T20:37:36.600Z,102135.41
2019-05-29T20:40:06.917Z,102126.53
2019-05-29T20:42:36.349Z,102131.87
2019-05-29T20:45:07.678Z,102128.53
2019-05-29T20:47:36.161Z,102120.15
2019-05-29T20:50:07.649Z,102122.47
2019-05-29T20:52:49.898Z,102115.80
2019-05-29T20:55:18.992Z,102122.81
2019-05-29T20:57:47.506Z,102124.96
2019-05-29T21:00:18.693Z,102127.48
2019-05-29T21:02:47.355Z,102119.09
2019-05-29T21:05:17.209Z,102122.09
2019-05-29T21:07:45.685Z,102127.77
2019-05-29T21:10:14.970Z,102126.77
2019-05-29T21:12:47.105Z,102123.09
2019-05-29T21:15:14.272Z,102117.08
2019-05-29T21:17:44.073Z,102116.94
2019-05-29T21:20:12.840Z,102116.09
2019-05-29T21:22:42.808Z,102111.42
2019-05-29T21:25:17.214Z,102115.11
2019-05-29T21:27:46.926Z,102122.63
2019-05-29T21:30:13.298Z,102129.17
2019-05-29T21:32:42.046Z,102126.49
2019-05-29T21:35:12.154Z,102121.80
2019-05-29T21:37:40.636Z,102127.16
2019-05-29T21:40:09.881Z,102121.13
2019-05-29T21:42:38.715Z,102120.45
2019-05-29T21:45:08.315Z,102115.42
2019-05-29T21:47:37.175Z,102112.41
2019-05-29T21:50:09.949Z,102109.39
2019-05-29T21:52:39.431Z,102103.55
2019-05-29T21:55:08.707Z,102105.36
2019-05-29T21:57:37.713Z,102103.69
2019-05-29T22:00:13.311Z,102102.02
2019-05-29T22:02:42.402Z,102109.70
2019-05-29T22:05:11.429Z,102105.01
2019-05-29T22:07:40.718Z,102108.34
2019-05-29T22:10:10.053Z,102110.03
2019-05-29T22:12:38.524Z,102116.70
2019-05-29T22:15:09.825Z,102115.17
2019-05-29T22:17:38.568Z,102115.34
2019-05-29T22:20:09.026Z,102120.36
2019-05-29T22:22:37.488Z,102118.02
2019-05-29T22:25:07.575Z,102112.00
2019-05-29T22:27:37.020Z,102115.98
2019-05-29T22:30:10.545Z,102113.81
2019-05-29T22:32:39.086Z,102116.80
2019-05-29T22:35:08.679Z,102113.25
2019-05-29T22:37:37.136Z,102107.22
2019-05-29T22:40:09.344Z,102109.55
2019-05-29T22:42:37.832Z,102105.20
2019-05-29T22:45:07.266Z,102095.51
2019-05-29T22:47:35.764Z,102095.84
2019-05-29T22:50:06.781Z,102089.16
2019-05-29T22:52:35.632Z,102098.52
2019-05-29T22:55:07.910Z,102102.19
2019-05-29T22:57:36.382Z,102092.19
2019-05-29T23:00:07.639Z,102093.19
2019-05-29T23:02:36.103Z,102092.33
2019-05-29T23:05:06.846Z,102083.83
2019-05-29T23:07:35.336Z,102076.15
2019-05-29T23:10:06.157Z,102077.98
2019-05-29T23:12:34.618Z,102075.48
2019-05-29T23:15:03.384Z,102078.83
2019-05-29T23:17:31.865Z,102072.00
2019-05-29T23:20:00.742Z,102071.16
2019-05-29T23:22:29.691Z,102065.50
2019-05-29T23:24:59.213Z,102065.85
2019-05-29T23:27:27.896Z,102067.20
2019-05-29T23:29:56.867Z,102059.19
2019-05-29T23:32:25.456Z,102062.53
2019-05-29T23:34:55.043Z,102057.19
2019-05-29T23:37:23.693Z,102058.86
2019-05-29T23:39:53.089Z,102061.86
2019-05-29T23:42:21.659Z,102062.00
2019-05-29T23:44:52.062Z,102057.83
2019-05-29T23:47:20.432Z,102063.84
2019-05-29T23:49:48.906Z,102061.48
2019-05-29T23:52:17.422Z,102053.78
2019-05-29T23:54:46.073Z,102069.48
2019-05-29T23:57:14.606Z,102061.78
2019-05-29T23:59:43.171Z,102058.44
